createdAt,value
2023-02-13T00:01:32.619Z,61234.34
2023-02-13T00:04:02.009Z,61240.75
2023-02-13T00:06:30.503Z,61240.22
2023-02-13T00:08:58.968Z,61243.56
2023-02-13T00:11:27.465Z,61237.75
2023-02-13T00:13:57.332Z,61234.56
2023-02-13T00:16:25.796Z,61231.34
2023-02-13T00:18:54.187Z,61234.34
2023-02-13T00:21:22.667Z,61233.25
2023-02-13T00:23:51.221Z,61232.84
2023-02-13T00:26:19.636Z,61233.25
2023-02-13T00:28:48.727Z,61238.19
2023-02-13T00:31:21.653Z,61235.41
2023-02-13T00:33:51.080Z,61231.78
2023-02-13T00:36:22.328Z,61227.88
2023-02-13T00:38:51.733Z,61235.41
2023-02-13T00:41:22.150Z,61231.66
2023-02-13T00:43:51.080Z,61230.56
2023-02-13T00:46:21.012Z,61221.72
2023-02-13T00:48:49.554Z,61223.09
2023-02-13T00:51:17.995Z,61225.75
2023-02-13T00:53:46.436Z,61219.03
2023-02-13T00:56:16.950Z,61222.13
2023-02-13T00:58:46.978Z,61220.53
2023-02-13T01:01:15.478Z,61221.06
2023-02-13T01:03:45.392Z,61221.47
2023-02-13T01:06:13.774Z,61222.56
2023-02-13T01:08:43.136Z,61225.34
2023-02-13T01:11:11.690Z,61230.56
2023-02-13T01:13:40.582Z,61223.09
2023-02-13T01:16:09.419Z,61232.19
2023-02-13T01:18:38.206Z,61228.00
2023-02-13T01:21:14.270Z,61228.97
2023-02-13T01:23:42.778Z,61223.31
2023-02-13T01:26:18.655Z,61224.81
2023-02-13T01:28:47.351Z,61220.28
2023-02-13T01:31:16.828Z,61210.47
2023-02-13T01:33:45.906Z,61219.34
2023-02-13T01:36:15.905Z,61213.44
2023-02-13T01:38:44.716Z,61203.94
2023-02-13T01:41:15.576Z,61198.56
2023-02-13T01:43:53.699Z,61204.22
2023-02-13T01:46:31.210Z,61205.94
2023-02-13T01:49:05.159Z,61207.78
2023-02-13T01:51:37.575Z,61215.06
2023-02-13T01:54:09.492Z,61211.84
2023-02-13T01:56:44.552Z,61205.41
2023-02-13T01:59:16.474Z,61200.59
2023-02-13T02:01:46.356Z,61207.13
2023-02-13T02:04:18.684Z,61243.56
2023-02-13T02:06:53.105Z,61246.34
2023-02-13T02:09:32.521Z,61258.53
2023-02-13T02:12:05.964Z,61245.16
2023-02-13T02:14:37.750Z,61236.69
2023-02-13T02:17:08.929Z,61231.34
2023-02-13T02:19:46.168Z,61222.25
2023-02-13T02:22:53.911Z,61205.00
2023-02-13T02:26:13.530Z,61236.69
2023-02-13T02:29:08.270Z,61258.13
2023-02-13T02:32:22.693Z,61271.81
2023-02-13T02:34:59.803Z,61265.38
2023-02-13T02:37:47.365Z,61261.88
2023-02-13T02:40:27.864Z,61262.81
2023-02-13T02:43:14.970Z,61232.97
2023-02-13T02:45:52.335Z,61224.69
2023-02-13T02:48:49.321Z,61210.34
2023-02-13T02:51:28.651Z,61198.56
2023-02-13T02:54:30.513Z,61187.88
2023-02-13T02:57:05.439Z,61185.06
2023-02-13T02:59:52.982Z,61174.38
2023-02-13T03:02:39.867Z,61157.78
2023-02-13T03:05:38.136Z,61147.84
2023-02-13T03:08:06.923Z,61146.13
2023-02-13T03:10:57.447Z,61135.03
2023-02-13T03:13:41.081Z,61130.72
2023-02-13T03:16:35.939Z,61129.69
2023-02-13T03:19:22.540Z,61135.44
2023-02-13T03:22:16.114Z,61130.63
2023-02-13T03:24:55.954Z,61125.16
2023-02-13T03:27:54.593Z,61123.00
2023-02-13T03:30:36.324Z,61113.38
2023-02-13T03:33:39.175Z,61110.19
2023-02-13T03:36:37.326Z,61098.66
2023-02-13T03:39:13.188Z,61100.53
2023-02-13T03:41:48.422Z,61097.75
2023-02-13T03:44:23.889Z,61092.00
2023-02-13T03:46:56.870Z,61086.91
2023-02-13T03:49:48.506Z,61079.94
2023-02-13T03:52:23.858Z,61080.25
2023-02-13T03:55:15.617Z,61074.06
2023-02-13T03:58:03.535Z,61070.84
2023-02-13T04:00:37.909Z,61076.72
2023-02-13T04:03:12.535Z,61075.94
2023-02-13T04:05:46.207Z,61075.94
2023-02-13T04:08:14.890Z,61064.03
2023-02-13T04:10:52.255Z,61066.59
2023-02-13T04:13:28.984Z,61062.28
2023-02-13T04:16:04.405Z,61058.03
2023-02-13T04:18:34.401Z,61057.78
2023-02-13T04:21:05.123Z,61055.09
2023-02-13T04:23:35.990Z,61048.41
2023-02-13T04:26:11.956Z,61049.22
2023-02-13T04:28:40.494Z,61044.13
2023-02-13T04:31:09.043Z,61041.72
2023-02-13T04:33:37.691Z,61035.97
2023-02-13T04:36:07.075Z,61043.44
2023-02-13T04:38:35.479Z,61043.84
2023-02-13T04:41:03.921Z,61046.53
2023-02-13T04:43:33.944Z,61035.03
2023-02-13T04:46:02.473Z,61032.34
2023-02-13T04:48:31.028Z,61030.63
2023-02-13T04:50:59.925Z,61022.72
2023-02-13T04:53:28.731Z,61029.66
2023-02-13T04:55:57.169Z,61031.56
2023-02-13T04:58:25.664Z,61024.19
2023-02-13T05:00:55.803Z,61025.69
2023-02-13T05:03:24.509Z,61021.53
2023-02-13T05:05:53.117Z,61014.72
2023-02-13T05:08:21.576Z,61011.91
2023-02-13T05:10:50.362Z,61011.25
2023-02-13T05:13:21.657Z,61005.63
2023-02-13T05:15:50.516Z,61009.78
2023-02-13T05:18:20.506Z,61001.91
2023-02-13T05:21:10.150Z,61001.25
2023-02-13T05:23:37.929Z,60991.22
2023-02-13T05:26:06.582Z,61001.78
2023-02-13T05:28:52.772Z,60988.97
2023-02-13T05:31:21.451Z,60978.94
2023-02-13T05:33:51.273Z,60976.66
2023-02-13T05:36:19.686Z,60978.16
2023-02-13T05:38:48.225Z,60957.44
2023-02-13T05:41:16.802Z,60962.78
2023-02-13T05:43:45.433Z,60965.88
2023-02-13T05:46:14.355Z,60948.38
2023-02-13T05:48:42.932Z,60952.09
2023-02-13T05:51:12.621Z,60945.81
2023-02-13T05:53:41.053Z,60947.06
2023-02-13T05:56:09.503Z,60931.94
2023-02-13T05:58:38.485Z,60938.75
2023-02-13T06:01:07.491Z,60928.19
2023-02-13T06:03:36.222Z,60926.19
2023-02-13T06:06:04.778Z,60931.28
2023-02-13T06:08:34.593Z,60914.19
2023-02-13T06:11:03.490Z,60918.03
2023-02-13T06:13:32.201Z,60903.34
2023-02-13T06:16:00.749Z,60904.59
2023-02-13T06:18:29.345Z,60894.03
2023-02-13T06:20:59.783Z,60896.69
2023-02-13T06:23:28.437Z,60902.44
2023-02-13T06:25:58.585Z,60895.38
2023-02-13T06:28:27.090Z,60882.16
2023-02-13T06:30:56.197Z,60877.50
2023-02-13T06:33:25.093Z,60877.91
2023-02-13T06:35:53.756Z,60885.13
2023-02-13T06:38:22.209Z,60872.03
2023-02-13T06:40:51.338Z,60878.84
2023-02-13T06:43:21.305Z,60886.84
2023-02-13T06:45:51.932Z,60871.50
2023-02-13T06:48:20.638Z,60854.03
2023-02-13T06:50:49.217Z,60858.59
2023-02-13T06:53:17.662Z,60851.22
2023-02-13T06:55:46.136Z,60846.53
2023-02-13T06:58:14.737Z,60836.94
2023-02-13T07:00:44.497Z,60848.03
2023-02-13T07:03:13.143Z,60849.75
2023-02-13T07:05:42.334Z,60863.63
2023-02-13T07:08:12.133Z,60866.16
2023-02-13T07:10:41.154Z,60864.03
2023-02-13T07:13:11.047Z,60861.91
2023-02-13T07:15:40.389Z,60841.63
2023-02-13T07:18:10.490Z,60860.69
2023-02-13T07:20:38.884Z,60862.31
2023-02-13T07:23:08.007Z,60852.41
2023-02-13T07:25:36.747Z,60849.22
2023-02-13T07:28:07.276Z,60861.91
2023-02-13T07:30:37.353Z,60860.94
2023-02-13T07:33:06.803Z,60859.91
2023-02-13T07:35:37.752Z,60862.56
2023-02-13T07:38:06.548Z,60865.50
2023-02-13T07:40:34.972Z,60867.88
2023-02-13T07:43:03.374Z,60873.22
2023-02-13T07:45:32.152Z,60877.38
2023-02-13T07:48:00.959Z,60885.38
2023-02-13T07:50:30.158Z,60883.91
2023-02-13T07:53:02.563Z,60891.38
2023-02-13T07:55:32.805Z,60893.91
2023-02-13T07:58:02.631Z,60902.56
2023-02-13T08:00:31.282Z,60909.53
2023-02-13T08:03:01.216Z,60913.53
2023-02-13T08:05:30.359Z,60919.94
2023-02-13T08:08:00.182Z,60917.81
2023-02-13T08:10:46.225Z,60907.38
2023-02-13T08:13:16.153Z,60911.00
2023-02-13T08:15:45.087Z,60919.13
2023-02-13T08:18:13.493Z,60923.81
2023-02-13T08:20:41.931Z,60927.25
2023-02-13T08:23:13.240Z,60915.94
2023-02-13T08:25:41.769Z,60924.34
2023-02-13T08:28:10.456Z,60943.31
2023-02-13T08:30:38.937Z,60937.56
2023-02-13T08:33:07.410Z,60931.28
2023-02-13T08:35:36.226Z,60936.22
2023-02-13T08:38:05.845Z,60943.56
2023-02-13T08:40:35.710Z,60959.72
2023-02-13T08:43:06.092Z,60963.97
2023-02-13T08:45:35.090Z,60964.25
2023-02-13T08:48:04.767Z,60967.56
2023-02-13T08:50:34.638Z,60974.41
2023-02-13T08:53:04.105Z,60976.78
2023-02-13T08:55:32.742Z,60973.16
2023-02-13T08:58:03.442Z,60984.16
2023-02-13T09:00:32.232Z,60994.94
2023-02-13T09:03:03.462Z,60999.63
2023-02-13T09:05:32.711Z,60999.22
2023-02-13T09:08:04.062Z,61007.38
2023-02-13T09:10:33.793Z,61027.00
2023-02-13T09:13:03.543Z,61027.97
2023-02-13T09:15:32.396Z,61046.00
2023-02-13T09:18:01.017Z,61044.66
2023-02-13T09:20:29.521Z,61042.78
2023-02-13T09:22:58.077Z,61049.47
2023-02-13T09:25:26.713Z,61071.25
2023-02-13T09:27:55.072Z,61097.34
2023-02-13T09:30:25.196Z,61112.03
2023-02-13T09:32:54.906Z,61194.81
2023-02-13T09:35:24.162Z,61282.78
2023-02-13T09:37:52.681Z,61350.72
2023-02-13T09:40:27.941Z,61423.63
2023-02-13T09:43:12.177Z,61443.50
2023-02-13T09:45:43.967Z,61432.75
2023-02-13T09:48:22.219Z,61485.34
2023-02-13T09:50:50.717Z,61463.34
2023-02-13T09:53:24.271Z,61492.31
2023-02-13T09:56:04.595Z,61486.97
2023-02-13T09:58:46.304Z,61493.81
2023-02-13T10:01:28.257Z,61453.03
2023-02-13T10:04:30.952Z,61531.63
2023-02-13T10:07:17.768Z,61552.78
2023-02-13T10:09:56.271Z,61575.03
2023-02-13T10:12:48.437Z,61617.56
2023-02-13T10:15:24.610Z,61658.63
2023-02-13T10:18:00.045Z,61655.72
2023-02-13T10:20:36.142Z,61698.22
2023-02-13T10:23:17.407Z,61737.81
2023-02-13T10:25:52.261Z,61705.75
2023-02-13T10:28:34.340Z,61660.56
2023-02-13T10:31:08.788Z,61656.59
2023-02-13T10:33:49.115Z,61713.19
2023-02-13T10:36:22.072Z,61668.94
2023-02-13T10:38:59.214Z,61723.38
2023-02-13T10:41:42.920Z,61691.13
2023-02-13T10:44:28.377Z,61706.63
2023-02-13T10:47:07.925Z,61764.47
2023-02-13T10:49:58.010Z,61787.19
2023-02-13T10:52:40.886Z,61804.44
2023-02-13T10:55:34.652Z,61807.09
2023-02-13T10:58:14.472Z,61794.59
2023-02-13T11:00:50.764Z,61780.41
2023-02-13T11:03:22.631Z,61775.59
2023-02-13T11:05:54.282Z,61751.78
2023-02-13T11:08:26.351Z,61790.00
2023-02-13T11:10:54.728Z,61791.84
2023-02-13T11:13:26.192Z,61791.06
2023-02-13T11:16:04.184Z,61780.41
2023-02-13T11:18:36.248Z,61792.16
2023-02-13T11:21:09.941Z,61793.22
2023-02-13T11:23:46.023Z,61760.41
2023-02-13T11:26:23.402Z,61802.38
2023-02-13T11:28:57.365Z,61816.16
2023-02-13T11:31:30.354Z,61817.34
2023-02-13T11:33:59.925Z,61851.91
2023-02-13T11:36:33.477Z,61898.91
2023-02-13T11:39:05.093Z,61889.63
2023-02-13T11:41:42.348Z,61902.00
2023-02-13T11:44:26.362Z,61926.25
2023-02-13T11:46:57.373Z,61934.03
2023-02-13T11:49:28.150Z,61920.44
2023-02-13T11:51:59.981Z,61923.03
2023-02-13T11:54:33.815Z,61942.44
2023-02-13T11:57:06.149Z,61955.38
2023-02-13T11:59:42.739Z,61935.41
2023-02-13T12:02:18.279Z,61886.81
2023-02-13T12:04:48.408Z,61835.34
2023-02-13T12:07:26.373Z,61856.25
2023-02-13T12:10:02.825Z,61840.63
2023-02-13T12:12:40.656Z,61806.56
2023-02-13T12:15:20.455Z,61836.84
2023-02-13T12:17:58.470Z,61860.66
2023-02-13T12:20:30.626Z,61889.63
2023-02-13T12:23:09.051Z,61867.00
2023-02-13T12:26:12.604Z,61854.31
2023-02-13T12:29:01.122Z,61824.47
2023-02-13T12:31:51.529Z,61887.47
2023-02-13T12:35:26.552Z,61911.16
2023-02-13T12:38:05.695Z,61919.78
2023-02-13T12:40:59.722Z,61891.25
2023-02-13T12:44:05.808Z,61889.09
2023-02-13T12:46:43.662Z,61914.84
2023-02-13T12:49:35.295Z,61937.03
2023-02-13T12:52:22.398Z,61921.97
2023-02-13T12:55:11.102Z,61932.19
2023-02-13T12:58:00.618Z,61909.00
2023-02-13T13:00:46.478Z,61825.66
2023-02-13T13:03:41.261Z,61808.84
2023-02-13T13:06:23.758Z,61776.97
2023-02-13T13:09:26.788Z,61785.25
2023-02-13T13:12:25.844Z,61743.19
2023-02-13T13:15:03.338Z,61763.63
2023-02-13T13:17:49.835Z,61821.00
2023-02-13T13:20:51.555Z,61832.53
2023-02-13T13:23:25.472Z,61863.66
2023-02-13T13:26:07.867Z,61823.94
2023-02-13T13:28:43.002Z,61791.84
2023-02-13T13:31:13.584Z,61779.34
2023-02-13T13:33:45.707Z,61756.50
2023-02-13T13:36:25.107Z,61757.28
2023-02-13T13:39:02.503Z,61734.16
2023-02-13T13:41:42.840Z,61729.63
2023-02-13T13:44:41.434Z,61739.97
2023-02-13T13:47:27.060Z,61747.47
2023-02-13T13:49:57.186Z,61758.91
2023-02-13T13:52:29.409Z,61744.25
2023-02-13T13:55:00.695Z,61723.28
2023-02-13T13:58:03.604Z,61704.47
2023-02-13T14:00:34.581Z,61691.56
2023-02-13T14:03:26.406Z,61700.16
2023-02-13T14:06:09.408Z,61712.53
2023-02-13T14:09:03.866Z,61727.03
2023-02-13T14:11:39.501Z,61703.38
2023-02-13T14:14:51.021Z,61671.13
2023-02-13T14:18:08.012Z,61694.13
2023-02-13T14:20:41.762Z,61695.31
2023-02-13T14:23:27.361Z,61685.53
2023-02-13T14:26:38.247Z,61690.88
2023-02-13T14:29:32.965Z,61705.53
2023-02-13T14:32:15.339Z,61695.31
2023-02-13T14:34:55.566Z,61704.22
2023-02-13T14:37:34.577Z,61720.59
2023-02-13T14:40:48.531Z,61719.94
2023-02-13T14:43:36.513Z,61696.91
2023-02-13T14:46:27.716Z,61686.41
2023-02-13T14:49:02.615Z,61681.97
2023-02-13T14:51:37.940Z,61685.09
2023-02-13T14:54:17.154Z,61674.88
2023-02-13T14:56:48.171Z,61663.16
2023-02-13T14:59:19.349Z,61661.41
2023-02-13T15:01:53.111Z,61665.31
2023-02-13T15:04:31.624Z,61667.31
2023-02-13T15:07:03.858Z,61685.75
2023-02-13T15:09:38.852Z,61690.47
2023-02-13T15:12:27.452Z,61695.84
2023-02-13T15:14:57.265Z,61678.88
2023-02-13T15:17:30.206Z,61694.66
2023-02-13T15:20:06.628Z,61697.38
2023-02-13T15:22:40.955Z,61687.78
2023-02-13T15:25:10.559Z,61688.00
2023-02-13T15:27:43.917Z,61680.81
2023-02-13T15:30:23.805Z,61675.19
2023-02-13T15:32:57.703Z,61665.97
2023-02-13T15:35:30.954Z,61664.53
2023-02-13T15:38:01.827Z,61660.75
2023-02-13T15:40:34.538Z,61645.53
2023-02-13T15:43:03.218Z,61647.13
2023-02-13T15:45:32.057Z,61645.28
2023-02-13T15:48:00.600Z,61645.28
2023-02-13T15:50:32.523Z,61643.16
2023-02-13T15:53:07.101Z,61644.66
2023-02-13T15:55:38.530Z,61636.28
2023-02-13T15:58:07.503Z,61629.19
2023-02-13T16:00:39.319Z,61619.72
2023-02-13T16:03:16.433Z,61623.28
2023-02-13T16:05:48.008Z,61617.47
2023-02-13T16:08:35.441Z,61611.97
2023-02-13T16:11:24.983Z,61594.38
2023-02-13T16:14:06.495Z,61591.97
2023-02-13T16:16:45.211Z,61589.81
2023-02-13T16:19:35.504Z,61581.47
2023-02-13T16:22:16.412Z,61578.13
2023-02-13T16:24:52.458Z,61562.03
2023-02-13T16:27:27.344Z,61556.22
2023-02-13T16:29:59.086Z,61564.72
2023-02-13T16:32:31.874Z,61576.09
2023-02-13T16:35:31.380Z,61570.50
2023-02-13T16:38:03.171Z,61557.81
2023-02-13T16:40:43.129Z,61554.59
2023-02-13T16:43:43.040Z,61558.25
2023-02-13T16:46:21.111Z,61557.41
2023-02-13T16:49:03.584Z,61532.25
2023-02-13T16:51:37.789Z,61518.53
2023-02-13T16:54:18.023Z,61502.41
2023-02-13T16:56:50.752Z,61492.75
2023-02-13T16:59:32.131Z,61482.25
2023-02-13T17:02:25.615Z,61475.16
2023-02-13T17:04:56.855Z,61472.34
2023-02-13T17:07:29.124Z,61469.13
2023-02-13T17:10:03.147Z,61469.13
2023-02-13T17:12:38.251Z,61463.53
2023-02-13T17:15:12.334Z,61448.22
2023-02-13T17:17:41.158Z,61445.63
2023-02-13T17:20:17.607Z,61444.44
2023-02-13T17:22:48.187Z,61437.59
2023-02-13T17:25:21.966Z,61432.63
2023-02-13T17:27:54.560Z,61426.31
2023-02-13T17:30:25.827Z,61428.34
2023-02-13T17:33:00.132Z,61421.06
2023-02-13T17:35:28.654Z,61425.53
2023-02-13T17:37:57.172Z,61422.34
2023-02-13T17:40:29.678Z,61413.97
2023-02-13T17:43:00.852Z,61413.34
2023-02-13T17:45:31.741Z,61402.06
2023-02-13T17:48:00.541Z,61390.38
2023-02-13T17:50:31.433Z,61381.81
2023-02-13T17:53:03.165Z,61382.00
2023-02-13T17:55:34.196Z,61370.41
2023-02-13T17:58:04.181Z,61366.69
2023-02-13T18:00:35.508Z,61357.69
2023-02-13T18:03:04.739Z,61358.88
2023-02-13T18:05:33.580Z,61347.63
2023-02-13T18:08:03.184Z,61353.94
2023-02-13T18:10:34.365Z,61353.28
2023-02-13T18:13:05.198Z,61341.06
2023-02-13T18:15:35.100Z,61339.34
2023-02-13T18:18:03.720Z,61332.91
2023-02-13T18:20:32.426Z,61322.19
2023-02-13T18:23:00.923Z,61315.75
2023-02-13T18:25:29.685Z,61307.72
2023-02-13T18:27:58.132Z,61308.28
2023-02-13T18:30:28.225Z,61308.28
2023-02-13T18:32:58.974Z,61297.13
2023-02-13T18:35:28.047Z,61289.19
2023-02-13T18:37:56.538Z,61288.53
2023-02-13T18:40:24.898Z,61287.03
2023-02-13T18:42:53.416Z,61290.56
2023-02-13T18:45:21.875Z,61284.69
2023-02-13T18:47:51.818Z,61283.59
2023-02-13T18:50:21.340Z,61267.78
2023-02-13T18:52:49.791Z,61273.00
2023-02-13T18:55:18.470Z,61269.69
2023-02-13T18:57:48.046Z,61260.03
2023-02-13T19:00:18.779Z,61260.03
2023-02-13T19:02:47.382Z,61246.88
2023-02-13T19:05:17.460Z,61253.59
2023-02-13T19:07:46.136Z,61244.09
2023-02-13T19:10:15.641Z,61232.44
2023-02-13T19:12:44.302Z,61228.13
2023-02-13T19:15:12.752Z,61226.53
2023-02-13T19:17:41.215Z,61223.63
2023-02-13T19:20:11.092Z,61210.34
2023-02-13T19:22:41.068Z,61210.34
2023-02-13T19:25:09.758Z,61204.88
2023-02-13T19:27:39.186Z,61198.03
2023-02-13T19:30:09.622Z,61193.22
2023-02-13T19:32:38.251Z,61191.50
2023-02-13T19:35:07.764Z,61183.19
2023-02-13T19:37:43.720Z,61184.66
2023-02-13T19:40:15.187Z,61188.03
2023-02-13T19:42:43.711Z,61181.88
2023-02-13T19:45:12.573Z,61174.38
2023-02-13T19:47:41.078Z,61176.91
2023-02-13T19:50:10.466Z,61172.25
2023-02-13T19:52:39.223Z,61161.78
2023-02-13T19:55:08.393Z,61160.03
2023-02-13T19:57:38.372Z,61165.16
2023-02-13T20:00:09.594Z,61145.72
2023-02-13T20:02:41.085Z,61144.00
2023-02-13T20:05:10.147Z,61150.94
2023-02-13T20:07:38.613Z,61145.91
2023-02-13T20:10:09.690Z,61137.34
2023-02-13T20:12:39.823Z,61134.25
2023-02-13T20:15:09.233Z,61122.59
2023-02-13T20:17:38.874Z,61121.94
2023-02-13T20:20:09.110Z,61120.34
2023-02-13T20:22:37.547Z,61113.91
2023-02-13T20:25:06.958Z,61111.91
2023-02-13T20:27:42.290Z,61108.03
2023-02-13T20:30:14.543Z,61105.91
2023-02-13T20:32:44.014Z,61097.59
2023-02-13T20:35:12.580Z,61096.81
2023-02-13T20:37:42.303Z,61095.88
2023-02-13T20:40:12.002Z,61093.72
2023-02-13T20:42:41.873Z,61083.56
2023-02-13T20:45:11.022Z,61084.09
2023-02-13T20:47:40.487Z,61077.56
2023-02-13T20:50:10.252Z,61086.66
2023-02-13T20:52:39.878Z,61086.66
2023-02-13T20:55:09.649Z,61078.22
2023-02-13T20:58:34.824Z,61080.25
2023-02-13T21:01:05.633Z,61077.69
2023-02-13T21:03:34.101Z,61067.00
2023-02-13T21:06:02.703Z,61075.53
2023-02-13T21:08:31.207Z,61074.06
2023-02-13T21:11:02.784Z,61068.06
2023-02-13T21:13:32.800Z,61064.97
2023-02-13T21:16:11.096Z,61066.03
2023-02-13T21:18:41.161Z,61064.44
2023-02-13T21:21:11.774Z,61070.06
2023-02-13T21:23:41.054Z,61068.47
2023-02-13T21:26:13.434Z,61047.34
2023-02-13T21:28:43.153Z,61049.88
2023-02-13T21:31:16.618Z,61049.47
2023-02-13T21:33:45.590Z,61044.94
2023-02-13T21:36:14.718Z,61049.22
2023-02-13T21:38:43.585Z,61046.00
2023-02-13T21:41:14.356Z,61023.78
2023-02-13T21:43:47.660Z,61021.78
2023-02-13T21:46:20.995Z,61034.25
2023-02-13T21:48:53.884Z,61022.19
2023-02-13T21:51:23.761Z,61017.78
2023-02-13T21:53:52.545Z,61019.94
2023-02-13T21:56:23.718Z,61014.59
2023-02-13T21:58:52.809Z,61018.44
2023-02-13T22:01:27.128Z,61021.00
2023-02-13T22:04:00.511Z,61025.28
2023-02-13T22:06:32.070Z,61019.28
2023-02-13T22:09:03.671Z,61014.59
2023-02-13T22:11:33.096Z,61007.13
2023-02-13T22:14:03.638Z,60990.16
2023-02-13T22:16:36.036Z,60988.28
2023-02-13T22:19:05.517Z,60991.50
2023-02-13T22:21:36.710Z,60984.16
2023-02-13T22:24:05.902Z,60977.22
2023-02-13T22:26:36.975Z,60971.03
2023-02-13T22:29:08.282Z,60975.47
2023-02-13T22:31:38.662Z,60964.50
2023-02-13T22:34:07.958Z,60962.91
2023-02-13T22:36:39.620Z,60959.03
2023-02-13T22:39:09.573Z,60966.94
2023-02-13T22:41:38.792Z,60959.72
2023-02-13T22:44:07.504Z,60965.88
2023-02-13T22:46:37.628Z,60958.94
2023-02-13T22:49:19.605Z,60956.25
2023-02-13T22:51:48.216Z,60946.63
2023-02-13T22:54:16.619Z,60948.78
2023-02-13T22:56:45.463Z,60945.16
2023-02-13T22:59:13.997Z,60938.22
2023-02-13T23:01:43.809Z,60937.69
2023-02-13T23:04:12.635Z,60939.16
2023-02-13T23:06:41.085Z,60939.41
2023-02-13T23:09:09.828Z,60927.00
2023-02-13T23:11:55.899Z,60926.34
2023-02-13T23:14:25.701Z,60923.81
2023-02-13T23:17:13.171Z,60919.53
2023-02-13T23:19:41.677Z,60914.19
2023-02-13T23:22:12.462Z,60909.53
2023-02-13T23:24:41.613Z,60917.56
2023-02-13T23:27:10.521Z,60917.81
2023-02-13T23:29:39.357Z,60918.88
2023-02-13T23:32:09.610Z,60918.34
2023-02-13T23:34:38.449Z,60912.59
2023-02-13T23:37:06.988Z,60911.00
2023-02-13T23:39:35.774Z,60907.13
2023-02-13T23:42:04.566Z,60907.13
2023-02-13T23:44:33.015Z,60900.31
2023-02-13T23:47:01.472Z,60892.19
2023-02-13T23:49:31.605Z,60883.66
2023-02-13T23:52:00.360Z,60879.09
2023-02-13T23:54:29.186Z,60872.16
2023-02-13T23:56:58.278Z,60884.31
2023-02-13T23:59:27.056Z,60872.16
